createdAt,value
2019-04-30T00:00:55.836Z,9.90
2019-04-30T00:03:31.519Z,9.90
2019-04-30T00:05:59.028Z,9.90
2019-04-30T00:08:30.070Z,10.00
2019-04-30T00:10:56.029Z,10.00
2019-04-30T00:13:23.597Z,10.10
2019-04-30T00:15:52.821Z,10.00
2019-04-30T00:18:20.812Z,10.00
2019-04-30T00:20:48.429Z,10.10
2019-04-30T00:23:17.972Z,10.10
2019-04-30T00:25:46.061Z,10.00
2019-04-30T00:28:15.552Z,9.90
2019-04-30T00:30:43.881Z,9.90
2019-04-30T00:33:15.312Z,9.90
2019-04-30T00:35:42.480Z,10.00
2019-04-30T00:38:10.116Z,10.00
2019-04-30T00:40:37.847Z,10.00
2019-04-30T00:43:08.982Z,10.00
2019-04-30T00:45:35.387Z,10.00
2019-04-30T00:48:02.956Z,10.10
2019-04-30T00:50:33.942Z,10.10
2019-04-30T00:53:00.082Z,10.20
2019-04-30T00:55:27.621Z,10.00
2019-04-30T00:57:55.799Z,10.10
2019-04-30T01:00:28.141Z,10.10
2019-04-30T01:03:12.829Z,10.20
2019-04-30T01:05:44.504Z,10.20
2019-04-30T01:08:09.756Z,10.20
2019-04-30T01:10:37.641Z,10.20
2019-04-30T01:13:08.075Z,10.20
2019-04-30T01:15:34.849Z,10.20
2019-04-30T01:18:02.376Z,10.20
2019-04-30T01:20:32.658Z,10.20
2019-04-30T01:23:03.051Z,10.20
2019-04-30T01:25:29.135Z,10.10
2019-04-30T01:27:58.502Z,10.10
2019-04-30T01:30:25.972Z,10.10
2019-04-30T01:32:56.566Z,10.10
2019-04-30T01:35:23.800Z,10.00
2019-04-30T01:37:52.549Z,10.10
2019-04-30T01:40:20.003Z,10.00
2019-04-30T01:42:50.861Z,10.10
2019-04-30T01:45:18.770Z,10.10
2019-04-30T01:47:46.512Z,10.20
2019-04-30T01:50:14.252Z,10.30
2019-04-30T01:52:53.688Z,10.30
2019-04-30T01:55:49.446Z,10.30
2019-04-30T01:58:35.444Z,10.30
2019-04-30T02:01:09.017Z,10.40
2019-04-30T02:03:45.561Z,10.40
2019-04-30T02:06:12.996Z,10.50
2019-04-30T02:08:40.436Z,10.60
2019-04-30T02:11:09.015Z,10.60
2019-04-30T02:13:36.655Z,10.60
2019-04-30T02:16:04.111Z,10.60
2019-04-30T02:18:31.916Z,10.50
2019-04-30T02:20:59.613Z,10.50
2019-04-30T02:23:27.119Z,10.60
2019-04-30T02:25:54.553Z,10.50
2019-04-30T02:28:22.008Z,10.50
2019-04-30T02:30:50.374Z,10.50
2019-04-30T02:33:19.798Z,10.50
2019-04-30T02:36:10.084Z,10.50
2019-04-30T02:38:39.613Z,10.60
2019-04-30T02:41:09.858Z,10.60
2019-04-30T02:43:39.903Z,10.60
2019-04-30T02:46:09.641Z,10.60
2019-04-30T02:48:40.077Z,10.50
2019-04-30T02:51:10.495Z,10.50
2019-04-30T02:54:06.285Z,10.40
2019-04-30T02:56:33.806Z,10.40
2019-04-30T02:59:03.719Z,10.50
2019-04-30T03:01:30.830Z,10.50
2019-04-30T03:03:59.840Z,10.50
2019-04-30T03:06:29.736Z,10.40
2019-04-30T03:08:56.841Z,10.60
2019-04-30T03:11:24.293Z,10.70
2019-04-30T03:13:51.756Z,10.70
2019-04-30T03:16:23.824Z,10.70
2019-04-30T03:19:09.930Z,10.90
2019-04-30T03:21:51.006Z,10.90
2019-04-30T03:24:20.138Z,11.00
2019-04-30T03:26:50.263Z,11.00
2019-04-30T03:29:23.345Z,11.00
2019-04-30T03:31:46.965Z,11.10
2019-04-30T03:34:23.260Z,11.00
2019-04-30T03:36:43.670Z,11.00
2019-04-30T03:39:13.897Z,11.00
2019-04-30T03:41:41.810Z,10.90
2019-04-30T03:44:20.912Z,11.00
2019-04-30T03:46:40.039Z,11.00
2019-04-30T03:49:10.584Z,11.00
2019-04-30T03:51:40.006Z,10.90
2019-04-30T03:54:06.486Z,10.90
2019-04-30T03:56:33.913Z,10.80
2019-04-30T03:59:01.747Z,10.90
2019-04-30T04:01:54.977Z,10.90
2019-04-30T04:04:30.964Z,11.00
2019-04-30T04:07:11.372Z,10.90
2019-04-30T04:09:44.217Z,11.00
2019-04-30T04:12:21.237Z,11.00
2019-04-30T04:14:50.922Z,11.10
2019-04-30T04:17:20.257Z,11.10
2019-04-30T04:19:51.014Z,11.10
2019-04-30T04:22:20.541Z,11.10
2019-04-30T04:24:50.390Z,11.10
2019-04-30T04:27:19.358Z,11.00
2019-04-30T04:29:47.078Z,10.90
2019-04-30T04:32:14.507Z,11.00
2019-04-30T04:34:44.904Z,10.90
2019-04-30T04:37:11.219Z,10.90
2019-04-30T04:39:38.968Z,11.00
2019-04-30T04:42:10.149Z,11.00
2019-04-30T04:44:39.335Z,11.00
2019-04-30T04:47:06.424Z,11.00
2019-04-30T04:49:33.873Z,11.00
2019-04-30T04:52:01.313Z,11.10
2019-04-30T04:54:29.999Z,11.10
2019-04-30T04:57:11.001Z,11.20
2019-04-30T04:59:29.569Z,11.30
2019-04-30T05:01:56.260Z,11.30
2019-04-30T05:04:24.088Z,11.30
2019-04-30T05:06:51.540Z,11.30
2019-04-30T05:09:21.032Z,11.20
2019-04-30T05:11:59.141Z,11.20
2019-04-30T05:14:28.690Z,11.30
2019-04-30T05:16:55.884Z,11.30
2019-04-30T05:19:23.669Z,11.30
2019-04-30T05:21:51.745Z,11.30
2019-04-30T05:24:19.248Z,11.40
2019-04-30T05:26:48.598Z,11.40
2019-04-30T05:29:15.939Z,11.40
2019-04-30T05:31:43.376Z,11.40
2019-04-30T05:34:10.799Z,11.40
2019-04-30T05:36:39.139Z,11.40
2019-04-30T05:39:08.275Z,11.20
2019-04-30T05:41:35.965Z,11.30
2019-04-30T05:44:03.427Z,11.30
2019-04-30T05:46:30.870Z,11.50
2019-04-30T05:48:59.422Z,11.60
2019-04-30T05:51:28.767Z,11.70
2019-04-30T05:53:56.348Z,11.60
2019-04-30T05:56:23.847Z,11.50
2019-04-30T05:58:51.267Z,11.60
2019-04-30T06:01:19.598Z,11.60
2019-04-30T06:03:48.393Z,11.60
2019-04-30T06:06:16.155Z,11.50
2019-04-30T06:08:50.704Z,11.60
2019-04-30T06:11:39.253Z,11.60
2019-04-30T06:14:24.563Z,11.50
2019-04-30T06:17:26.508Z,11.50
2019-04-30T06:19:55.691Z,11.60
2019-04-30T06:22:24.060Z,11.50
2019-04-30T06:24:51.568Z,11.50
2019-04-30T06:27:19.335Z,11.60
2019-04-30T06:29:48.956Z,11.70
2019-04-30T06:32:18.479Z,11.70
2019-04-30T06:34:46.839Z,11.80
2019-04-30T06:37:14.555Z,11.70
2019-04-30T06:39:42.074Z,11.80
2019-04-30T06:42:12.779Z,11.90
2019-04-30T06:44:41.892Z,11.90
2019-04-30T06:47:15.362Z,11.90
2019-04-30T06:49:43.244Z,11.90
2019-04-30T06:52:20.328Z,12.00
2019-04-30T06:54:40.718Z,12.00
2019-04-30T06:57:09.672Z,12.10
2019-04-30T06:59:39.562Z,12.10
2019-04-30T07:02:09.131Z,12.30
2019-04-30T07:04:36.823Z,12.30
2019-04-30T07:07:04.307Z,12.30
2019-04-30T07:09:58.224Z,12.40
2019-04-30T07:12:34.189Z,12.40
2019-04-30T07:15:01.838Z,12.40
2019-04-30T07:17:29.387Z,12.30
2019-04-30T07:19:57.065Z,12.30
2019-04-30T07:22:39.096Z,12.30
2019-04-30T07:24:54.170Z,12.20
2019-04-30T07:27:24.119Z,12.20
2019-04-30T07:29:50.986Z,12.20
2019-04-30T07:32:24.752Z,12.20
2019-04-30T07:34:52.272Z,12.20
2019-04-30T07:37:24.248Z,12.20
2019-04-30T07:39:51.284Z,12.10
2019-04-30T07:42:19.339Z,11.90
2019-04-30T07:44:46.956Z,11.80
2019-04-30T07:47:14.521Z,11.60
2019-04-30T07:49:51.552Z,11.70
2019-04-30T07:52:14.060Z,11.60
2019-04-30T07:54:41.974Z,11.60
2019-04-30T07:57:09.619Z,11.70
2019-04-30T07:59:37.112Z,11.70
2019-04-30T08:02:12.265Z,11.70
2019-04-30T08:05:05.440Z,11.80
2019-04-30T08:07:32.979Z,11.70
2019-04-30T08:10:00.405Z,11.80
2019-04-30T08:12:31.941Z,11.50
2019-04-30T08:14:59.505Z,11.40
2019-04-30T08:17:28.861Z,11.50
2019-04-30T08:19:58.628Z,11.50
2019-04-30T08:22:26.121Z,11.60
2019-04-30T08:24:53.660Z,11.40
2019-04-30T08:27:22.225Z,11.40
2019-04-30T08:29:50.104Z,11.50
2019-04-30T08:32:19.078Z,11.60
2019-04-30T08:34:47.080Z,11.50
2019-04-30T08:37:19.608Z,11.60
2019-04-30T08:39:46.364Z,11.60
2019-04-30T08:42:13.933Z,11.60
2019-04-30T08:44:41.492Z,11.60
2019-04-30T08:47:08.939Z,11.70
2019-04-30T08:49:36.639Z,11.60
2019-04-30T08:52:04.695Z,11.50
2019-04-30T08:54:34.597Z,11.60
2019-04-30T08:57:01.648Z,11.60
2019-04-30T08:59:29.569Z,11.60
2019-04-30T09:01:58.750Z,11.60
2019-04-30T09:04:29.189Z,11.70
2019-04-30T09:06:56.636Z,11.70
2019-04-30T09:09:24.088Z,11.80
2019-04-30T09:11:55.409Z,11.90
2019-04-30T09:14:20.813Z,12.00
2019-04-30T09:16:49.551Z,12.00
2019-04-30T09:19:21.024Z,12.00
2019-04-30T09:21:48.758Z,12.00
2019-04-30T09:24:16.084Z,12.00
2019-04-30T09:26:43.532Z,12.10
2019-04-30T09:29:10.968Z,12.10
2019-04-30T09:31:40.803Z,11.90
2019-04-30T09:34:15.228Z,11.80
2019-04-30T09:36:39.171Z,11.90
2019-04-30T09:39:08.997Z,12.00
2019-04-30T09:41:36.586Z,12.00
2019-04-30T09:44:05.117Z,12.10
2019-04-30T09:46:32.937Z,12.20
2019-04-30T09:49:09.634Z,12.30
2019-04-30T09:51:39.080Z,12.30
2019-04-30T09:54:06.905Z,12.50
2019-04-30T09:56:35.709Z,12.50
2019-04-30T09:59:03.346Z,12.50
2019-04-30T10:01:33.362Z,12.50
2019-04-30T10:04:01.634Z,12.50
2019-04-30T10:06:39.082Z,12.30
2019-04-30T10:08:59.813Z,12.40
2019-04-30T10:11:44.295Z,12.50
2019-04-30T10:14:11.771Z,12.60
2019-04-30T10:16:49.476Z,12.60
2019-04-30T10:19:17.006Z,12.50
2019-04-30T10:21:44.501Z,12.40
2019-04-30T10:24:15.437Z,12.40
2019-04-30T10:26:41.364Z,12.50
2019-04-30T10:29:08.898Z,12.30
2019-04-30T10:31:36.511Z,12.30
2019-04-30T10:34:04.112Z,12.20
2019-04-30T10:36:31.624Z,12.20
2019-04-30T10:38:59.580Z,12.20
2019-04-30T10:41:28.816Z,12.30
2019-04-30T10:43:56.581Z,12.40
2019-04-30T10:46:25.108Z,12.60
2019-04-30T10:48:52.933Z,12.70
2019-04-30T10:51:20.507Z,13.00
2019-04-30T10:53:48.585Z,13.00
2019-04-30T10:56:19.194Z,12.90
2019-04-30T10:58:46.696Z,12.90
2019-04-30T11:01:14.192Z,12.90
2019-04-30T11:03:42.989Z,13.00
2019-04-30T11:06:10.468Z,13.00
2019-04-30T11:08:37.952Z,13.10
2019-04-30T11:11:05.620Z,13.00
2019-04-30T11:13:33.184Z,13.00
2019-04-30T11:16:12.079Z,12.90
2019-04-30T11:18:30.106Z,12.80
2019-04-30T11:20:59.658Z,12.80
2019-04-30T11:23:29.377Z,12.80
2019-04-30T11:25:57.152Z,12.90
2019-04-30T11:28:26.056Z,12.80
2019-04-30T11:31:06.179Z,12.80
2019-04-30T11:33:34.325Z,12.90
2019-04-30T11:36:04.937Z,12.90
2019-04-30T11:38:31.457Z,13.00
2019-04-30T11:40:59.088Z,13.10
2019-04-30T11:43:26.697Z,13.00
2019-04-30T11:46:35.143Z,13.10
2019-04-30T11:49:02.762Z,13.20
2019-04-30T11:51:30.219Z,13.20
2019-04-30T11:53:59.357Z,13.30
2019-04-30T11:56:27.005Z,13.50
2019-04-30T11:58:54.448Z,13.60
2019-04-30T12:01:27.083Z,13.90
2019-04-30T12:03:54.644Z,14.20
2019-04-30T12:06:22.307Z,14.40
2019-04-30T12:09:14.173Z,14.50
2019-04-30T12:11:41.766Z,14.40
2019-04-30T12:14:11.362Z,14.40
2019-04-30T12:16:39.596Z,14.60
2019-04-30T12:19:09.069Z,14.70
2019-04-30T12:21:36.810Z,14.80
2019-04-30T12:24:04.304Z,14.90
2019-04-30T12:26:32.070Z,14.90
2019-04-30T12:28:59.587Z,14.90
2019-04-30T12:31:27.137Z,14.90
2019-04-30T12:33:54.743Z,15.00
2019-04-30T12:36:22.480Z,15.10
2019-04-30T12:38:50.157Z,15.10
2019-04-30T12:41:17.639Z,15.20
2019-04-30T12:43:45.223Z,15.30
2019-04-30T12:46:13.071Z,15.60
2019-04-30T12:48:59.613Z,15.70
2019-04-30T12:51:45.269Z,15.80
2019-04-30T12:54:13.618Z,15.70
2019-04-30T12:57:00.741Z,15.70
2019-04-30T12:59:28.240Z,15.70
2019-04-30T13:01:55.777Z,15.90
2019-04-30T13:04:29.207Z,15.90
2019-04-30T13:07:01.610Z,15.80
2019-04-30T13:09:31.989Z,15.80
2019-04-30T13:12:02.561Z,16.00
2019-04-30T13:14:31.490Z,16.10
2019-04-30T13:16:59.478Z,16.10
2019-04-30T13:19:29.695Z,16.30
2019-04-30T13:21:58.666Z,16.30
2019-04-30T13:24:26.577Z,16.20
2019-04-30T13:26:54.062Z,16.20
2019-04-30T13:29:32.338Z,16.00
2019-04-30T13:31:59.888Z,16.10
2019-04-30T13:34:44.590Z,15.70
2019-04-30T13:37:12.053Z,15.50
2019-04-30T13:39:50.663Z,15.50
2019-04-30T13:42:29.345Z,15.50
2019-04-30T13:44:56.956Z,15.70
2019-04-30T13:47:24.448Z,15.60
2019-04-30T13:49:52.060Z,15.80
2019-04-30T13:52:19.559Z,15.90
2019-04-30T13:54:47.024Z,16.00
2019-04-30T13:57:15.664Z,16.00
2019-04-30T13:59:43.224Z,15.70
2019-04-30T14:02:10.970Z,15.80
2019-04-30T14:04:50.082Z,15.90
2019-04-30T14:07:35.644Z,16.00
2019-04-30T14:10:03.612Z,16.10
2019-04-30T14:12:32.912Z,16.20
2019-04-30T14:15:02.230Z,16.40
2019-04-30T14:17:29.906Z,16.30
2019-04-30T14:19:57.779Z,16.10
2019-04-30T14:22:25.281Z,16.00
2019-04-30T14:24:52.819Z,16.10
2019-04-30T14:27:20.353Z,16.20
2019-04-30T14:29:49.516Z,16.20
2019-04-30T14:32:18.571Z,16.20
2019-04-30T14:34:46.153Z,16.30
2019-04-30T14:37:13.695Z,16.30
2019-04-30T14:39:41.569Z,16.20
2019-04-30T14:42:12.768Z,16.20
2019-04-30T14:44:41.136Z,16.30
2019-04-30T14:47:35.619Z,16.20
2019-04-30T14:50:13.585Z,16.30
2019-04-30T14:52:55.300Z,16.40
2019-04-30T14:55:49.544Z,16.50
2019-04-30T14:58:39.778Z,16.50
2019-04-30T15:01:19.714Z,16.60
2019-04-30T15:03:49.392Z,16.60
2019-04-30T15:06:16.709Z,16.80
2019-04-30T15:08:44.274Z,16.90
2019-04-30T15:11:12.455Z,17.00
2019-04-30T15:13:40.137Z,17.00
2019-04-30T15:16:07.749Z,17.00
2019-04-30T15:18:35.408Z,17.00
2019-04-30T15:21:03.547Z,17.10
2019-04-30T15:23:58.880Z,17.10
2019-04-30T15:26:24.557Z,16.90
2019-04-30T15:28:49.187Z,16.60
2019-04-30T15:31:18.441Z,16.70
2019-04-30T15:34:02.244Z,16.60
2019-04-30T15:36:20.618Z,16.60
2019-04-30T15:39:02.339Z,16.70
2019-04-30T15:41:30.376Z,16.70
2019-04-30T15:43:57.943Z,16.90
2019-04-30T15:46:25.432Z,16.80
2019-04-30T15:48:53.224Z,16.70
2019-04-30T15:51:20.657Z,16.70
2019-04-30T15:53:51.129Z,16.80
2019-04-30T15:56:19.259Z,16.90
2019-04-30T15:59:06.432Z,16.90
2019-04-30T16:01:33.860Z,16.70
2019-04-30T16:04:01.616Z,16.60
2019-04-30T16:06:29.088Z,16.70
2019-04-30T16:08:58.618Z,16.60
2019-04-30T16:11:41.832Z,16.60
2019-04-30T16:14:20.976Z,16.60
2019-04-30T16:16:59.463Z,16.60
2019-04-30T16:19:28.719Z,16.70
2019-04-30T16:21:56.184Z,16.70
2019-04-30T16:24:23.690Z,16.40
2019-04-30T16:26:52.798Z,16.50
2019-04-30T16:29:20.429Z,16.60
2019-04-30T16:31:49.412Z,16.70
2019-04-30T16:34:17.082Z,16.80
2019-04-30T16:36:44.532Z,16.80
2019-04-30T16:39:12.500Z,16.90
2019-04-30T16:41:40.792Z,17.00
2019-04-30T16:44:10.027Z,17.00
2019-04-30T16:46:39.441Z,17.00
2019-04-30T16:49:07.102Z,16.90
2019-04-30T16:51:35.934Z,16.90
2019-04-30T16:54:04.782Z,16.80
2019-04-30T16:56:32.344Z,16.80
2019-04-30T16:59:01.751Z,16.70
2019-04-30T17:01:30.029Z,16.70
2019-04-30T17:04:03.981Z,16.60
2019-04-30T17:06:33.185Z,16.50
2019-04-30T17:09:10.165Z,16.30
2019-04-30T17:12:04.397Z,16.30
2019-04-30T17:14:32.828Z,16.40
2019-04-30T17:17:00.330Z,16.30
2019-04-30T17:19:29.209Z,16.30
2019-04-30T17:21:56.775Z,16.30
2019-04-30T17:24:24.327Z,16.20
2019-04-30T17:26:51.997Z,16.20
2019-04-30T17:29:19.579Z,16.30
2019-04-30T17:31:47.148Z,16.20
2019-04-30T17:34:14.822Z,16.20
2019-04-30T17:36:42.406Z,16.10
2019-04-30T17:39:14.700Z,16.10
2019-04-30T17:41:42.309Z,15.90
2019-04-30T17:44:11.338Z,15.80
2019-04-30T17:46:38.897Z,15.80
2019-04-30T17:49:06.400Z,15.90
2019-04-30T17:51:33.847Z,15.80
2019-04-30T17:54:13.561Z,15.60
2019-04-30T17:56:42.016Z,15.40
2019-04-30T17:59:09.811Z,15.50
2019-04-30T18:01:39.963Z,15.50
2019-04-30T18:04:08.779Z,15.40
2019-04-30T18:06:36.362Z,15.40
2019-04-30T18:09:06.416Z,15.50
2019-04-30T18:11:33.944Z,15.40
2019-04-30T18:14:01.404Z,15.40
2019-04-30T18:16:29.029Z,15.40
2019-04-30T18:19:06.178Z,15.40
2019-04-30T18:21:40.429Z,15.40
2019-04-30T18:24:30.420Z,15.40
2019-04-30T18:27:02.350Z,15.40
2019-04-30T18:29:29.926Z,15.30
2019-04-30T18:31:59.845Z,15.20
2019-04-30T18:34:29.130Z,15.20
2019-04-30T18:36:56.475Z,15.10
2019-04-30T18:39:23.979Z,15.10
2019-04-30T18:41:51.509Z,14.90
2019-04-30T18:44:22.312Z,14.90
2019-04-30T18:46:49.879Z,14.80
2019-04-30T18:49:18.776Z,14.80
2019-04-30T18:51:46.532Z,14.70
2019-04-30T18:54:14.355Z,14.70
2019-04-30T18:56:41.954Z,14.70
2019-04-30T18:59:10.453Z,14.70
2019-04-30T19:01:40.968Z,14.60
2019-04-30T19:04:09.178Z,14.60
2019-04-30T19:06:39.730Z,14.50
2019-04-30T19:09:29.687Z,14.40
2019-04-30T19:12:11.421Z,14.30
2019-04-30T19:15:00.804Z,14.30
2019-04-30T19:17:49.446Z,14.20
2019-04-30T19:20:30.463Z,14.10
2019-04-30T19:22:57.955Z,14.00
2019-04-30T19:25:28.885Z,13.90
2019-04-30T19:28:09.069Z,13.80
2019-04-30T19:30:29.275Z,13.80
2019-04-30T19:33:01.090Z,13.70
2019-04-30T19:35:28.707Z,13.70
2019-04-30T19:37:56.475Z,13.60
2019-04-30T19:40:26.240Z,13.40
2019-04-30T19:42:53.771Z,13.40
2019-04-30T19:45:26.136Z,13.30
2019-04-30T19:47:58.722Z,13.30
2019-04-30T19:50:29.298Z,13.30
2019-04-30T19:52:58.635Z,13.20
2019-04-30T19:55:26.225Z,13.20
2019-04-30T19:57:54.000Z,13.20
2019-04-30T20:00:21.992Z,13.30
2019-04-30T20:02:49.523Z,13.30
2019-04-30T20:05:16.957Z,13.10
2019-04-30T20:07:44.921Z,13.10
2019-04-30T20:10:13.480Z,13.10
2019-04-30T20:12:40.924Z,13.10
2019-04-30T20:15:17.275Z,13.20
2019-04-30T20:17:38.558Z,13.20
2019-04-30T20:20:08.994Z,13.10
2019-04-30T20:22:36.616Z,12.90
2019-04-30T20:25:04.416Z,12.90
2019-04-30T20:27:31.844Z,12.70
2019-04-30T20:29:59.395Z,12.60
2019-04-30T20:32:35.383Z,12.60
2019-04-30T20:34:56.946Z,12.60
2019-04-30T20:37:24.683Z,12.50
2019-04-30T20:40:02.895Z,12.50
2019-04-30T20:42:30.712Z,12.60
2019-04-30T20:44:58.868Z,12.50
2019-04-30T20:47:26.509Z,12.30
2019-04-30T20:49:53.968Z,12.10
2019-04-30T20:52:32.374Z,11.90
2019-04-30T20:55:00.209Z,11.70
2019-04-30T20:57:29.445Z,11.70
2019-04-30T20:59:56.903Z,11.60
2019-04-30T21:02:24.342Z,11.60
2019-04-30T21:04:52.229Z,11.50
2019-04-30T21:07:19.787Z,11.50
2019-04-30T21:09:47.260Z,11.40
2019-04-30T21:12:15.049Z,11.50
2019-04-30T21:14:42.520Z,11.50
2019-04-30T21:17:09.973Z,11.50
2019-04-30T21:19:37.424Z,11.60
2019-04-30T21:22:05.473Z,11.60
2019-04-30T21:24:38.829Z,11.60
2019-04-30T21:27:07.626Z,11.60
2019-04-30T21:29:36.692Z,11.40
2019-04-30T21:32:28.680Z,11.30
2019-04-30T21:35:16.961Z,11.20
2019-04-30T21:37:45.542Z,11.00
2019-04-30T21:40:13.796Z,11.00
2019-04-30T21:42:42.298Z,11.00
2019-04-30T21:45:10.576Z,11.00
2019-04-30T21:47:38.396Z,10.80
2019-04-30T21:50:06.317Z,10.80
2019-04-30T21:52:35.553Z,10.80
2019-04-30T21:55:03.243Z,10.70
2019-04-30T21:57:30.657Z,10.70
2019-04-30T21:59:58.792Z,10.70
2019-04-30T22:02:26.564Z,10.60
2019-04-30T22:04:54.044Z,10.60
2019-04-30T22:07:21.468Z,10.60
2019-04-30T22:09:51.015Z,10.70
2019-04-30T22:12:19.152Z,10.70
2019-04-30T22:14:46.825Z,10.70
2019-04-30T22:17:14.364Z,10.80
2019-04-30T22:19:41.812Z,10.80
2019-04-30T22:22:09.473Z,10.70
2019-04-30T22:24:38.853Z,10.60
2019-04-30T22:27:06.234Z,10.40
2019-04-30T22:29:39.256Z,10.40
2019-04-30T22:32:02.968Z,10.30
2019-04-30T22:34:30.728Z,10.20
2019-04-30T22:36:58.610Z,10.20
2019-04-30T22:39:31.128Z,10.20
2019-04-30T22:42:29.799Z,10.10
2019-04-30T22:44:58.436Z,10.00
2019-04-30T22:47:26.061Z,10.00
2019-04-30T22:49:53.559Z,9.90
2019-04-30T22:52:21.908Z,9.90
2019-04-30T22:54:49.565Z,9.90
2019-04-30T22:57:17.032Z,9.90
2019-04-30T22:59:56.273Z,10.00
2019-04-30T23:02:52.520Z,9.90
2019-04-30T23:05:20.246Z,10.00
2019-04-30T23:07:47.724Z,9.90
2019-04-30T23:10:16.204Z,9.90
2019-04-30T23:12:43.674Z,9.90
2019-04-30T23:15:12.376Z,9.80
2019-04-30T23:17:39.976Z,9.70
2019-04-30T23:20:08.213Z,9.60
2019-04-30T23:22:36.671Z,9.60
2019-04-30T23:25:04.432Z,9.60
2019-04-30T23:27:33.457Z,9.50
2019-04-30T23:30:03.617Z,9.40
2019-04-30T23:32:30.607Z,9.30
2019-04-30T23:34:58.464Z,9.30
2019-04-30T23:37:25.971Z,9.30
2019-04-30T23:39:53.481Z,9.10
2019-04-30T23:42:20.969Z,8.90
2019-04-30T23:44:48.400Z,9.10
2019-04-30T23:47:15.839Z,9.20
2019-04-30T23:49:43.264Z,9.20
2019-04-30T23:52:10.736Z,9.00
2019-04-30T23:54:38.168Z,8.90
2019-04-30T23:57:05.620Z,8.80
2019-04-30T23:59:33.039Z,8.80
